sensor_id;sensor_type;location;lat;lon;timestamp;pressure;altitude;pressure_sealevel;temperature;humidity
46614;BME280;32338;50.430;6.806;2023-05-08T00:00:08;66710.59;;;11.83;100.00
46614;BME280;32338;50.430;6.806;2023-05-08T00:02:34;66703.28;;;11.76;100.00
46614;BME280;32338;50.430;6.806;2023-05-08T00:05:01;66693.72;;;11.75;100.00
46614;BME280;32338;50.430;6.806;2023-05-08T00:07:28;66696.16;;;11.72;100.00
46614;BME280;32338;50.430;6.806;2023-05-08T00:09:56;66698.78;;;11.72;100.00
46614;BME280;32338;50.430;6.806;2023-05-08T00:12:22;66688.63;;;11.63;100.00
46614;BME280;32338;50.430;6.806;2023-05-08T00:14:49;66668.91;;;11.52;100.00
46614;BME280;32338;50.430;6.806;2023-05-08T00:17:15;66664.94;;;11.41;100.00
46614;BME280;32338;50.430;6.806;2023-05-08T00:19:42;66655.34;;;11.32;100.00
46614;BME280;32338;50.430;6.806;2023-05-08T00:22:08;66640.31;;;11.21;100.00
46614;BME280;32338;50.430;6.806;2023-05-08T00:24:35;66642.19;;;11.18;100.00
46614;BME280;32338;50.430;6.806;2023-05-08T00:27:03;66650.47;;;11.30;100.00
46614;BME280;32338;50.430;6.806;2023-05-08T00:29:30;66652.34;;;11.27;100.00
46614;BME280;32338;50.430;6.806;2023-05-08T00:31:56;66640.69;;;11.19;100.00
46614;BME280;32338;50.430;6.806;2023-05-08T00:34:23;66637.69;;;11.21;100.00
46614;BME280;32338;50.430;6.806;2023-05-08T00:36:49;66650.84;;;11.28;100.00
46614;BME280;32338;50.430;6.806;2023-05-08T00:39:16;66657.22;;;11.36;100.00
46614;BME280;32338;50.430;6.806;2023-05-08T00:41:42;66666.06;;;11.42;100.00
46614;BME280;32338;50.430;6.806;2023-05-08T00:44:10;66664.38;;;11.41;100.00
46614;BME280;32338;50.430;6.806;2023-05-08T00:46:37;66664.19;;;11.38;100.00
46614;BME280;32338;50.430;6.806;2023-05-08T00:49:04;66660.03;;;11.39;100.00
46614;BME280;32338;50.430;6.806;2023-05-08T00:51:31;66661.56;;;11.38;100.00
46614;BME280;32338;50.430;6.806;2023-05-08T00:53:59;66655.19;;;11.37;100.00
46614;BME280;32338;50.430;6.806;2023-05-08T00:56:27;66658.34;;;11.38;100.00
46614;BME280;32338;50.430;6.806;2023-05-08T00:58:55;66663.25;;;11.40;100.00
46614;BME280;32338;50.430;6.806;2023-05-08T01:01:23;66655.91;;;11.33;100.00
46614;BME280;32338;50.430;6.806;2023-05-08T01:03:50;66652.16;;;11.32;100.00
46614;BME280;32338;50.430;6.806;2023-05-08T01:06:17;66653.28;;;11.33;100.00
46614;BME280;32338;50.430;6.806;2023-05-08T01:08:44;66648.59;;;11.33;100.00
46614;BME280;32338;50.430;6.806;2023-05-08T01:11:15;66651.78;;;11.34;100.00
46614;BME280;32338;50.430;6.806;2023-05-08T01:13:50;66662.28;;;11.34;100.00
46614;BME280;32338;50.430;6.806;2023-05-08T01:16:25;66656.47;;;11.33;100.00
46614;BME280;32338;50.430;6.806;2023-05-08T01:18:59;66650.84;;;11.28;100.00
46614;BME280;32338;50.430;6.806;2023-05-08T01:21:32;66644.28;;;11.25;100.00
46614;BME280;32338;50.430;6.806;2023-05-08T01:30:18;66618.53;;;11.03;100.00
46614;BME280;32338;50.430;6.806;2023-05-08T01:32:55;66617.78;;;11.00;100.00
46614;BME280;32338;50.430;6.806;2023-05-08T01:35:27;66617.22;;;11.00;100.00
46614;BME280;32338;50.430;6.806;2023-05-08T01:37:59;66608.41;;;10.94;100.00
46614;BME280;32338;50.430;6.806;2023-05-08T01:40:34;66600.88;;;10.85;100.00
46614;BME280;32338;50.430;6.806;2023-05-08T01:43:12;66595.22;;;10.80;100.00
46614;BME280;32338;50.430;6.806;2023-05-08T01:45:44;66597.84;;;10.80;100.00
46614;BME280;32338;50.430;6.806;2023-05-08T01:48:16;66589.03;;;10.74;100.00
46614;BME280;32338;50.430;6.806;2023-05-08T01:50:47;66588.47;;;10.74;100.00
46614;BME280;32338;50.430;6.806;2023-05-08T01:53:20;66585.84;;;10.74;100.00
46614;BME280;32338;50.430;6.806;2023-05-08T01:55:49;66585.47;;;10.68;100.00
46614;BME280;32338;50.430;6.806;2023-05-08T01:58:19;66586.00;;;10.69;100.00
46614;BME280;32338;50.430;6.806;2023-05-08T02:00:47;66592.59;;;10.73;100.00
46614;BME280;32338;50.430;6.806;2023-05-08T02:03:16;66589.97;;;10.73;100.00
46614;BME280;32338;50.430;6.806;2023-05-08T02:05:44;66588.06;;;10.68;100.00
46614;BME280;32338;50.430;6.806;2023-05-08T02:08:13;66579.81;;;10.63;100.00
46614;BME280;32338;50.430;6.806;2023-05-08T02:10:42;66564.03;;;10.49;100.00
46614;BME280;32338;50.430;6.806;2023-05-08T02:13:11;66566.84;;;10.51;100.00
46614;BME280;32338;50.430;6.806;2023-05-08T02:15:43;66576.25;;;10.58;100.00
46614;BME280;32338;50.430;6.806;2023-05-08T02:18:11;66570.44;;;10.57;100.00
46614;BME280;32338;50.430;6.806;2023-05-08T02:20:40;66572.69;;;10.59;100.00
46614;BME280;32338;50.430;6.806;2023-05-08T02:23:07;66570.44;;;10.57;100.00
46614;BME280;32338;50.430;6.806;2023-05-08T02:25:35;66568.56;;;10.53;100.00
46614;BME280;32338;50.430;6.806;2023-05-08T02:28:03;66567.44;;;10.52;100.00
46614;BME280;32338;50.430;6.806;2023-05-08T02:30:32;66581.31;;;10.62;100.00
46614;BME280;32338;50.430;6.806;2023-05-08T02:33:00;66571.56;;;10.58;100.00
46614;BME280;32338;50.430;6.806;2023-05-08T02:35:28;66572.50;;;10.57;100.00
46614;BME280;32338;50.430;6.806;2023-05-08T02:37:58;66570.81;;;10.55;100.00
46614;BME280;32338;50.430;6.806;2023-05-08T02:40:28;66570.25;;;10.54;100.00
46614;BME280;32338;50.430;6.806;2023-05-08T02:42:55;66570.44;;;10.57;100.00
46614;BME280;32338;50.430;6.806;2023-05-08T02:45:24;66569.88;;;10.57;100.00
46614;BME280;32338;50.430;6.806;2023-05-08T02:47:59;66579.25;;;10.63;100.00
46614;BME280;32338;50.430;6.806;2023-05-08T02:50:32;66589.56;;;10.67;100.00
46614;BME280;32338;50.430;6.806;2023-05-08T02:53:07;66592.97;;;10.78;100.00
46614;BME280;32338;50.430;6.806;2023-05-08T02:55:39;66591.84;;;10.77;100.00
46614;BME280;32338;50.430;6.806;2023-05-08T02:58:13;66594.28;;;10.81;100.00
46614;BME280;32338;50.430;6.806;2023-05-08T03:00:46;66593.91;;;10.76;100.00
46614;BME280;32338;50.430;6.806;2023-05-08T03:03:18;66580.22;;;10.68;100.00
46614;BME280;32338;50.430;6.806;2023-05-08T03:05:50;66571.00;;;10.58;100.00
46614;BME280;32338;50.430;6.806;2023-05-08T03:08:23;66558.41;;;10.44;100.00
46614;BME280;32338;50.430;6.806;2023-05-08T03:10:54;66560.47;;;10.43;100.00
46614;BME280;32338;50.430;6.806;2023-05-08T03:13:23;66571.94;;;10.56;100.00
46614;BME280;32338;50.430;6.806;2023-05-08T03:15:53;66581.31;;;10.62;100.00
46614;BME280;32338;50.430;6.806;2023-05-08T03:18:24;66578.88;;;10.65;100.00
46614;BME280;32338;50.430;6.806;2023-05-08T03:20:54;66592.59;;;10.73;100.00
46614;BME280;32338;50.430;6.806;2023-05-08T03:23:23;66584.53;;;10.70;100.00
46614;BME280;32338;50.430;6.806;2023-05-08T03:25:52;66578.88;;;10.65;100.00
46614;BME280;32338;50.430;6.806;2023-05-08T03:28:20;66576.63;;;10.63;100.00
46614;BME280;32338;50.430;6.806;2023-05-08T03:30:48;66581.69;;;10.67;100.00
46614;BME280;32338;50.430;6.806;2023-05-08T03:33:16;66595.78;;;10.73;100.00
46614;BME280;32338;50.430;6.806;2023-05-08T03:35:44;66580.75;;;10.62;100.00
46614;BME280;32338;50.430;6.806;2023-05-08T03:38:11;66578.13;;;10.62;100.00
46614;BME280;32338;50.430;6.806;2023-05-08T03:40:40;66580.00;;;10.66;100.00
46614;BME280;32338;50.430;6.806;2023-05-08T03:43:07;66570.63;;;10.60;100.00
46614;BME280;32338;50.430;6.806;2023-05-08T03:45:36;66566.13;;;10.56;100.00
46614;BME280;32338;50.430;6.806;2023-05-08T03:48:04;66571.94;;;10.56;100.00
46614;BME280;32338;50.430;6.806;2023-05-08T03:50:33;66572.50;;;10.64;100.00
46614;BME280;32338;50.430;6.806;2023-05-08T03:53:00;66582.81;;;10.61;100.00
46614;BME280;32338;50.430;6.806;2023-05-08T03:55:27;66580.56;;;10.59;100.00
46614;BME280;32338;50.430;6.806;2023-05-08T03:57:59;66583.00;;;10.64;100.00
46614;BME280;32338;50.430;6.806;2023-05-08T04:00:32;66570.06;;;10.59;100.00
46614;BME280;32338;50.430;6.806;2023-05-08T04:03:12;66573.41;;;10.55;100.00
46614;BME280;32338;50.430;6.806;2023-05-08T04:05:47;66577.75;;;10.64;100.00
46614;BME280;32338;50.430;6.806;2023-05-08T04:08:18;66585.47;;;10.68;100.00
46614;BME280;32338;50.430;6.806;2023-05-08T04:10:49;66590.53;;;10.73;100.00
46614;BME280;32338;50.430;6.806;2023-05-08T04:13:26;66582.09;;;10.65;100.00
46614;BME280;32338;50.430;6.806;2023-05-08T04:16:04;66574.94;;;10.61;100.00
46614;BME280;32338;50.430;6.806;2023-05-08T04:18:35;66574.19;;;10.58;100.00
46614;BME280;32338;50.430;6.806;2023-05-08T04:23:33;66576.81;;;10.58;100.00
46614;BME280;32338;50.430;6.806;2023-05-08T04:26:01;66573.81;;;10.60;100.00
46614;BME280;32338;50.430;6.806;2023-05-08T04:28:29;66568.19;;;10.55;100.00
46614;BME280;32338;50.430;6.806;2023-05-08T04:30:57;66567.03;;;10.54;100.00
46614;BME280;32338;50.430;6.806;2023-05-08T04:33:24;66573.63;;;10.58;100.00
46614;BME280;32338;50.430;6.806;2023-05-08T04:35:51;66586.22;;;10.71;100.00
46614;BME280;32338;50.430;6.806;2023-05-08T04:38:17;66582.84;;;10.68;100.00
46614;BME280;32338;50.430;6.806;2023-05-08T04:40:44;66574.94;;;10.61;100.00
46614;BME280;32338;50.430;6.806;2023-05-08T04:43:10;66582.81;;;10.61;100.00
46614;BME280;32338;50.430;6.806;2023-05-08T04:45:38;66576.06;;;10.62;100.00
46614;BME280;32338;50.430;6.806;2023-05-08T04:48:05;66576.63;;;10.63;100.00
46614;BME280;32338;50.430;6.806;2023-05-08T04:50:31;66583.78;;;10.67;100.00
46614;BME280;32338;50.430;6.806;2023-05-08T04:52:58;66581.69;;;10.67;100.00
46614;BME280;32338;50.430;6.806;2023-05-08T04:55:25;66596.72;;;10.79;100.00
46614;BME280;32338;50.430;6.806;2023-05-08T04:57:51;66591.44;;;10.71;100.00
46614;BME280;32338;50.430;6.806;2023-05-08T05:00:19;66585.66;;;10.71;100.00
46614;BME280;32338;50.430;6.806;2023-05-08T05:02:47;66586.22;;;10.71;100.00
46614;BME280;32338;50.430;6.806;2023-05-08T05:05:13;66590.72;;;10.76;100.00
46614;BME280;32338;50.430;6.806;2023-05-08T05:07:40;66599.38;;;10.86;100.00
46614;BME280;32338;50.430;6.806;2023-05-08T05:10:07;66609.88;;;10.93;100.00
46614;BME280;32338;50.430;6.806;2023-05-08T05:12:33;66610.63;;;10.96;100.00
46614;BME280;32338;50.430;6.806;2023-05-08T05:15:00;66616.84;;;11.02;100.00
46614;BME280;32338;50.430;6.806;2023-05-08T05:17:26;66615.31;;;10.96;100.00
46614;BME280;32338;50.430;6.806;2023-05-08T05:19:54;66613.25;;;10.96;100.00
46614;BME280;32338;50.430;6.806;2023-05-08T05:22:21;66624.13;;;11.01;100.00
46614;BME280;32338;50.430;6.806;2023-05-08T05:24:48;66626.59;;;11.06;100.00
46614;BME280;32338;50.430;6.806;2023-05-08T05:27:15;66624.91;;;11.05;100.00
46614;BME280;32338;50.430;6.806;2023-05-08T05:29:41;66625.84;;;11.03;100.00
46614;BME280;32338;50.430;6.806;2023-05-08T05:32:08;66625.66;;;11.00;100.00
46614;BME280;32338;50.430;6.806;2023-05-08T05:34:35;66624.13;;;11.01;100.00
46614;BME280;32338;50.430;6.806;2023-05-08T05:37:03;66632.22;;;11.11;100.00
46614;BME280;32338;50.430;6.806;2023-05-08T05:39:30;66637.31;;;11.16;100.00
46614;BME280;32338;50.430;6.806;2023-05-08T05:41:56;66633.38;;;11.12;100.00
46614;BME280;32338;50.430;6.806;2023-05-08T05:44:23;66621.16;;;11.03;100.00
46614;BME280;32338;50.430;6.806;2023-05-08T05:46:50;66625.47;;;11.05;100.00
46614;BME280;32338;50.430;6.806;2023-05-08T05:49:17;66630.56;;;11.17;100.00
46614;BME280;32338;50.430;6.806;2023-05-08T05:51:43;66649.16;;;11.27;100.00
46614;BME280;32338;50.430;6.806;2023-05-08T05:54:12;66657.22;;;11.36;100.00
46614;BME280;32338;50.430;6.806;2023-05-08T05:56:38;66661.75;;;11.41;100.00
46614;BME280;32338;50.430;6.806;2023-05-08T05:59:05;66667.00;;;11.48;100.00
46614;BME280;32338;50.430;6.806;2023-05-08T06:01:31;66674.72;;;11.52;100.00
46614;BME280;32338;50.430;6.806;2023-05-08T06:03:58;66688.25;;;11.65;100.00
46614;BME280;32338;50.430;6.806;2023-05-08T06:06:24;66686.19;;;11.65;100.00
46614;BME280;32338;50.430;6.806;2023-05-08T06:08:51;66697.09;;;11.71;100.00
46614;BME280;32338;50.430;6.806;2023-05-08T06:11:19;66698.97;;;11.75;100.00
46614;BME280;32338;50.430;6.806;2023-05-08T06:13:46;66709.13;;;11.84;100.00
46614;BME280;32338;50.430;6.806;2023-05-08T06:16:13;66721.53;;;11.95;100.00
46614;BME280;32338;50.430;6.806;2023-05-08T06:18:39;66735.66;;;12.08;100.00
46614;BME280;32338;50.430;6.806;2023-05-08T06:21:06;66739.97;;;12.10;100.00
46614;BME280;32338;50.430;6.806;2023-05-08T06:23:33;66732.06;;;12.03;100.00
46614;BME280;32338;50.430;6.806;2023-05-08T06:26:00;66728.69;;;11.99;100.00
46614;BME280;32338;50.430;6.806;2023-05-08T06:28:28;66750.50;;;12.17;100.00
46614;BME280;32338;50.430;6.806;2023-05-08T06:30:54;66750.13;;;12.19;100.00
46614;BME280;32338;50.430;6.806;2023-05-08T06:33:21;66742.78;;;12.12;100.00
46614;BME280;32338;50.430;6.806;2023-05-08T06:35:47;66745.06;;;12.14;100.00
46614;BME280;32338;50.430;6.806;2023-05-08T06:38:14;66751.25;;;12.20;100.00
46614;BME280;32338;50.430;6.806;2023-05-08T06:40:41;66760.84;;;12.29;100.00
46614;BME280;32338;50.430;6.806;2023-05-08T06:43:09;66757.09;;;12.28;100.00
46614;BME280;32338;50.430;6.806;2023-05-08T06:45:37;66770.06;;;12.40;100.00
46614;BME280;32338;50.430;6.806;2023-05-08T06:48:04;66777.22;;;12.44;100.00
46614;BME280;32338;50.430;6.806;2023-05-08T06:50:31;66782.84;;;12.49;100.00
46614;BME280;32338;50.430;6.806;2023-05-08T06:52:57;66785.13;;;12.51;100.00
46614;BME280;32338;50.430;6.806;2023-05-08T06:55:24;66769.69;;;12.42;100.00
46614;BME280;32338;50.430;6.806;2023-05-08T06:57:51;66771.56;;;12.39;100.00
46614;BME280;32338;50.430;6.806;2023-05-08T07:00:17;66768.94;;;12.39;100.00
46614;BME280;32338;50.430;6.806;2023-05-08T07:02:45;66779.84;;;12.51;100.00
46614;BME280;32338;50.430;6.806;2023-05-08T07:05:12;66788.13;;;12.56;100.00
46614;BME280;32338;50.430;6.806;2023-05-08T07:07:39;66802.03;;;12.67;100.00
46614;BME280;32338;50.430;6.806;2023-05-08T07:10:07;66803.72;;;12.68;100.00
46614;BME280;32338;50.430;6.806;2023-05-08T07:12:34;66804.50;;;12.71;100.00
46614;BME280;32338;50.430;6.806;2023-05-08T07:15:00;66800.19;;;12.70;100.00
46614;BME280;32338;50.430;6.806;2023-05-08T07:17:28;66792.09;;;12.60;100.00
46614;BME280;32338;50.430;6.806;2023-05-08T07:19:56;66777.59;;;12.49;100.00
46614;BME280;32338;50.430;6.806;2023-05-08T07:22:22;66786.25;;;12.52;100.00
46614;BME280;32338;50.430;6.806;2023-05-08T07:24:49;66784.00;;;12.57;100.00
46614;BME280;32338;50.430;6.806;2023-05-08T07:27:16;66804.31;;;12.69;100.00
46614;BME280;32338;50.430;6.806;2023-05-08T07:29:42;66807.69;;;12.72;100.00
46614;BME280;32338;50.430;6.806;2023-05-08T07:32:09;66808.28;;;12.79;100.00
46614;BME280;32338;50.430;6.806;2023-05-08T07:34:35;66817.47;;;12.83;100.00
46614;BME280;32338;50.430;6.806;2023-05-08T07:37:03;66816.38;;;12.82;100.00
46614;BME280;32338;50.430;6.806;2023-05-08T07:39:30;66812.78;;;12.76;100.00
46614;BME280;32338;50.430;6.806;2023-05-08T07:41:56;66807.69;;;12.72;100.00
46614;BME280;32338;50.430;6.806;2023-05-08T07:44:23;66810.50;;;12.74;100.00
46614;BME280;32338;50.430;6.806;2023-05-08T07:46:49;66808.06;;;12.77;100.00
46614;BME280;32338;50.430;6.806;2023-05-08T07:49:16;66800.19;;;12.70;100.00
46614;BME280;32338;50.430;6.806;2023-05-08T07:51:43;66809.41;;;12.73;100.00
46614;BME280;32338;50.430;6.806;2023-05-08T07:54:11;66812.59;;;12.74;100.00
46614;BME280;32338;50.430;6.806;2023-05-08T07:56:37;66808.25;;;12.72;100.00
46614;BME280;32338;50.430;6.806;2023-05-08T07:59:04;66809.59;;;12.76;100.00
46614;BME280;32338;50.430;6.806;2023-05-08T08:01:30;66820.50;;;12.81;100.00
46614;BME280;32338;50.430;6.806;2023-05-08T08:03:57;66831.41;;;12.93;100.00
46614;BME280;32338;50.430;6.806;2023-05-08T08:06:25;66833.28;;;12.97;100.00
46614;BME280;32338;50.430;6.806;2023-05-08T08:08:51;66835.91;;;12.97;100.00
46614;BME280;32338;50.430;6.806;2023-05-08T08:11:19;66844.22;;;13.10;100.00
46614;BME280;32338;50.430;6.806;2023-05-08T08:13:46;66865.09;;;13.22;100.00
46614;BME280;32338;50.430;6.806;2023-05-08T08:16:13;66875.47;;;13.34;100.00
46614;BME280;32338;50.430;6.806;2023-05-08T08:18:40;66890.53;;;13.45;100.00
46614;BME280;32338;50.430;6.806;2023-05-08T08:21:06;66894.50;;;13.56;100.00
46614;BME280;32338;50.430;6.806;2023-05-08T08:23:33;66894.88;;;13.54;100.00
46614;BME280;32338;50.430;6.806;2023-05-08T08:26:00;66891.47;;;13.51;100.00
46614;BME280;32338;50.430;6.806;2023-05-08T08:28:28;66889.03;;;13.46;100.00
46614;BME280;32338;50.430;6.806;2023-05-08T08:30:54;66873.97;;;13.35;100.00
46614;BME280;32338;50.430;6.806;2023-05-08T08:33:21;66874.88;;;13.33;100.00
46614;BME280;32338;50.430;6.806;2023-05-08T08:35:47;66869.81;;;13.28;100.00
46614;BME280;32338;50.430;6.806;2023-05-08T08:38:14;66864.91;;;13.26;100.00
46614;BME280;32338;50.430;6.806;2023-05-08T08:40:41;66872.81;;;13.34;100.00
46614;BME280;32338;50.430;6.806;2023-05-08T08:43:08;66872.44;;;13.28;100.00
46614;BME280;32338;50.430;6.806;2023-05-08T08:45:36;66864.34;;;13.26;100.00
46614;BME280;32338;50.430;6.806;2023-05-08T08:48:05;66836.84;;;13.03;100.00
46614;BME280;32338;50.430;6.806;2023-05-08T08:50:39;66839.69;;;12.98;100.00
46614;BME280;32338;50.430;6.806;2023-05-08T08:53:10;66826.88;;;12.89;100.00
46614;BME280;32338;50.430;6.806;2023-05-08T08:55:39;66839.13;;;13.05;100.00
46614;BME280;32338;50.430;6.806;2023-05-08T08:58:13;66850.22;;;13.13;100.00
46614;BME280;32338;50.430;6.806;2023-05-08T09:00:43;66872.06;;;13.30;100.00
46614;BME280;32338;50.430;6.806;2023-05-08T09:03:10;66874.72;;;13.38;100.00
46614;BME280;32338;50.430;6.806;2023-05-08T09:05:37;66882.25;;;13.40;100.00
46614;BME280;32338;50.430;6.806;2023-05-08T09:08:04;66886.41;;;13.46;100.00
46614;BME280;32338;50.430;6.806;2023-05-08T09:10:31;66892.59;;;13.52;100.00
46614;BME280;32338;50.430;6.806;2023-05-08T09:12:58;66895.63;;;13.57;100.00
46614;BME280;32338;50.430;6.806;2023-05-08T09:15:24;66890.91;;;13.50;100.00
46614;BME280;32338;50.430;6.806;2023-05-08T09:17:52;66884.13;;;13.44;100.00
46614;BME280;32338;50.430;6.806;2023-05-08T09:20:19;66881.88;;;13.42;100.00
46614;BME280;32338;50.430;6.806;2023-05-08T09:22:46;66883.38;;;13.41;100.00
46614;BME280;32338;50.430;6.806;2023-05-08T09:25:14;66885.44;;;13.40;100.00
46614;BME280;32338;50.430;6.806;2023-05-08T09:27:40;66886.97;;;13.46;100.00
46614;BME280;32338;50.430;6.806;2023-05-08T09:30:08;66890.53;;;13.45;100.00
46614;BME280;32338;50.430;6.806;2023-05-08T09:32:37;66888.09;;;13.48;100.00
46614;BME280;32338;50.430;6.806;2023-05-08T09:35:07;66886.59;;;13.49;100.00
46614;BME280;32338;50.430;6.806;2023-05-08T09:37:37;66895.63;;;13.57;100.00
46614;BME280;32338;50.430;6.806;2023-05-08T09:40:14;66911.81;;;13.69;100.00
46614;BME280;32338;50.430;6.806;2023-05-08T09:42:41;66925.00;;;13.84;100.00
46614;BME280;32338;50.430;6.806;2023-05-08T09:45:08;66942.53;;;14.00;100.00
46614;BME280;32338;50.430;6.806;2023-05-08T09:47:35;66951.56;;;14.08;100.00
46614;BME280;32338;50.430;6.806;2023-05-08T09:50:07;66957.97;;;14.09;100.00
46614;BME280;32338;50.430;6.806;2023-05-08T09:52:35;66944.78;;;14.02;100.00
46614;BME280;32338;50.430;6.806;2023-05-08T09:55:03;66953.25;;;14.02;100.00
46614;BME280;32338;50.430;6.806;2023-05-08T09:57:33;66960.97;;;14.07;100.00
46614;BME280;32338;50.430;6.806;2023-05-08T10:00:03;66947.22;;;13.99;100.00
46614;BME280;32338;50.430;6.806;2023-05-08T10:02:30;66940.44;;;13.93;100.00
46614;BME280;32338;50.430;6.806;2023-05-08T10:04:57;66934.78;;;13.88;100.00
46614;BME280;32338;50.430;6.806;2023-05-08T10:07:29;66936.47;;;13.89;100.00
46614;BME280;32338;50.430;6.806;2023-05-08T10:09:57;66938.94;;;13.94;100.00
46614;BME280;32338;50.430;6.806;2023-05-08T10:12:25;66942.13;;;14.02;100.00
46614;BME280;32338;50.430;6.806;2023-05-08T10:14:52;66957.19;;;14.06;100.00
46614;BME280;32338;50.430;6.806;2023-05-08T10:17:24;66967.19;;;14.20;100.00
46614;BME280;32338;50.430;6.806;2023-05-08T10:19:54;66990.94;;;14.41;100.00
46614;BME280;32338;50.430;6.806;2023-05-08T10:22:24;67022.06;;;14.70;100.00
46614;BME280;32338;50.430;6.806;2023-05-08T10:24:55;67066.72;;;15.11;100.00
46614;BME280;32338;50.430;6.806;2023-05-08T10:27:37;67072.94;;;15.16;100.00
46614;BME280;32338;50.430;6.806;2023-05-08T10:30:05;67090.84;;;15.30;100.00
46614;BME280;32338;50.430;6.806;2023-05-08T10:32:37;67086.53;;;15.29;100.00
46614;BME280;32338;50.430;6.806;2023-05-08T10:35:08;67092.00;;;15.31;100.00
46614;BME280;32338;50.430;6.806;2023-05-08T10:37:37;67105.38;;;15.48;100.00
46614;BME280;32338;50.430;6.806;2023-05-08T10:40:06;67091.81;;;15.29;100.00
46614;BME280;32338;50.430;6.806;2023-05-08T10:42:35;67106.31;;;15.47;100.00
46614;BME280;32338;50.430;6.806;2023-05-08T10:45:03;67102.53;;;15.38;100.00
46614;BME280;32338;50.430;6.806;2023-05-08T10:47:38;67106.88;;;15.47;100.00
46614;BME280;32338;50.430;6.806;2023-05-08T10:50:18;67114.97;;;15.57;100.00
46614;BME280;32338;50.430;6.806;2023-05-08T10:52:51;67117.81;;;15.60;100.00
46614;BME280;32338;50.430;6.806;2023-05-08T10:55:27;67126.50;;;15.70;100.00
46614;BME280;32338;50.430;6.806;2023-05-08T10:58:05;67120.09;;;15.62;100.00
46614;BME280;32338;50.430;6.806;2023-05-08T11:01:14;67108.41;;;15.46;100.00
46614;BME280;32338;50.430;6.806;2023-05-08T11:03:43;67127.25;;;15.66;100.00
46614;BME280;32338;50.430;6.806;2023-05-08T11:06:10;67136.50;;;15.77;100.00
46614;BME280;32338;50.430;6.806;2023-05-08T11:08:49;67114.97;;;15.57;100.00
46614;BME280;32338;50.430;6.806;2023-05-08T11:11:26;67125.19;;;15.59;100.00
46614;BME280;32338;50.430;6.806;2023-05-08T11:13:57;67118.56;;;15.55;100.00
46614;BME280;32338;50.430;6.806;2023-05-08T11:17:02;67117.81;;;15.60;100.00
46614;BME280;32338;50.430;6.806;2023-05-08T11:19:29;67113.84;;;15.56;100.00
46614;BME280;32338;50.430;6.806;2023-05-08T11:22:22;67093.50;;;15.37;100.00
46614;BME280;32338;50.430;6.806;2023-05-08T11:24:53;67115.38;;;15.55;100.00
46614;BME280;32338;50.430;6.806;2023-05-08T11:30:36;67116.13;;;15.58;100.00
46614;BME280;32338;50.430;6.806;2023-05-08T11:33:13;67140.09;;;15.75;100.00
46614;BME280;32338;50.430;6.806;2023-05-08T11:35:53;67145.94;;;15.83;100.00
46614;BME280;32338;50.430;6.806;2023-05-08T11:38:22;67151.59;;;15.88;100.00
46614;BME280;32338;50.430;6.806;2023-05-08T11:40:54;67129.50;;;15.68;100.00
46614;BME280;32338;50.430;6.806;2023-05-08T11:43:47;67125.56;;;15.64;100.00
46614;BME280;32338;50.430;6.806;2023-05-08T11:46:19;67124.59;;;15.59;100.00
46614;BME280;32338;50.430;6.806;2023-05-08T11:48:46;67097.84;;;15.39;100.00
46614;BME280;32338;50.430;6.806;2023-05-08T11:51:16;67076.50;;;15.22;100.00
46614;BME280;32338;50.430;6.806;2023-05-08T11:53:43;67068.97;;;15.13;100.00
46614;BME280;32338;50.430;6.806;2023-05-08T11:56:10;67067.28;;;15.11;100.00
46614;BME280;32338;50.430;6.806;2023-05-08T11:58:38;67070.69;;;15.14;100.00
46614;BME280;32338;50.430;6.806;2023-05-08T12:01:04;67077.28;;;15.18;100.00
46614;BME280;32338;50.430;6.806;2023-05-08T12:03:31;67074.25;;;15.20;100.00
46614;BME280;32338;50.430;6.806;2023-05-08T12:05:58;67072.94;;;15.16;100.00
46614;BME280;32338;50.430;6.806;2023-05-08T12:08:25;67081.25;;;15.21;100.00
46614;BME280;32338;50.430;6.806;2023-05-08T12:10:53;67100.09;;;15.41;100.00
46614;BME280;32338;50.430;6.806;2023-05-08T12:13:22;67102.34;;;15.43;100.00
46614;BME280;32338;50.430;6.806;2023-05-08T12:15:51;67104.25;;;15.40;100.00
46614;BME280;32338;50.430;6.806;2023-05-08T12:18:19;67100.47;;;15.39;100.00
46614;BME280;32338;50.430;6.806;2023-05-08T12:20:50;67100.09;;;15.41;100.00
46614;BME280;32338;50.430;6.806;2023-05-08T12:23:17;67114.44;;;15.49;100.00
46614;BME280;32338;50.430;6.806;2023-05-08T12:25:44;67118.75;;;15.58;100.00
46614;BME280;32338;50.430;6.806;2023-05-08T12:28:11;67119.91;;;15.59;100.00
46614;BME280;32338;50.430;6.806;2023-05-08T12:30:37;67112.16;;;15.54;100.00
46614;BME280;32338;50.430;6.806;2023-05-08T12:33:06;67116.88;;;15.54;100.00
46614;BME280;32338;50.430;6.806;2023-05-08T12:35:32;67102.16;;;15.40;100.00
46614;BME280;32338;50.430;6.806;2023-05-08T12:38:00;67101.63;;;15.40;100.00
46614;BME280;32338;50.430;6.806;2023-05-08T12:40:28;67108.41;;;15.46;100.00
46614;BME280;32338;50.430;6.806;2023-05-08T12:42:55;67114.44;;;15.56;100.00
46614;BME280;32338;50.430;6.806;2023-05-08T12:45:23;67113.47;;;15.58;100.00
46614;BME280;32338;50.430;6.806;2023-05-08T12:47:53;67128.38;;;15.67;100.00
46614;BME280;32338;50.430;6.806;2023-05-08T12:50:21;67129.16;;;15.70;100.00
46614;BME280;32338;50.430;6.806;2023-05-08T12:52:50;67133.09;;;15.73;100.00
46614;BME280;32338;50.430;6.806;2023-05-08T12:55:23;67140.28;;;15.78;100.00
46614;BME280;32338;50.430;6.806;2023-05-08T12:57:58;67148.00;;;15.82;100.00
46614;BME280;32338;50.430;6.806;2023-05-08T13:00:24;67155.56;;;15.92;100.00
46614;BME280;32338;50.430;6.806;2023-05-08T13:02:51;67149.91;;;15.86;100.00
46614;BME280;32338;50.430;6.806;2023-05-08T13:05:19;67170.66;;;16.03;100.00
46614;BME280;32338;50.430;6.806;2023-05-08T13:07:48;67195.56;;;16.26;100.00
46614;BME280;32338;50.430;6.806;2023-05-08T13:10:16;67183.84;;;16.17;100.00